Time;durP1;ratioP1;P1;durP2;ratioP2;P2;SDS_P1;SDS_P2;PMS_P1;PMS_P2;Temp;Humidity;BMP_temperature;BMP_pressure;BME280_temperature;BME280_humidity;BME280_pressure;Samples;Min_cycle;Max_cycle;Signal;HPM_P1;HPM_P2
2023/04/01 00:02:30;;;;;;;44.63;16.75;;;;;;;8.89;100.00;99075.19;10373088;28;20046;-78
2023/04/01 00:07:31;;;;;;;54.80;17.10;;;;;;;8.85;100.00;99083.75;10375806;28;20057;-77
2023/04/01 00:12:31;;;;;;;47.40;16.95;;;;;;;8.84;100.00;99081.28;10375331;28;20041;-78
2023/04/01 00:17:32;;;;;;;55.60;16.73;;;;;;;8.83;100.00;99087.72;10372793;28;20117;-78
2023/04/01 00:22:33;;;;;;;57.35;16.42;;;;;;;8.79;100.00;99097.34;10372715;28;20030;-80
2023/04/01 00:27:34;;;;;;;72.20;19.15;;;;;;;8.77;100.00;99092.16;10355933;28;20405;-77
2023/04/01 00:32:35;;;;;;;65.25;18.33;;;;;;;8.77;100.00;99100.25;10389116;28;20095;-78
2023/04/01 00:37:36;;;;;;;51.05;15.80;;;;;;;8.75;100.00;99101.56;10377090;28;20455;-77
2023/04/01 00:42:37;;;;;;;60.80;15.02;;;;;;;8.72;100.00;99108.25;10397919;28;20104;-77
2023/04/01 00:47:37;;;;;;;44.65;16.35;;;;;;;8.64;100.00;99110.44;10397108;28;20087;-78
2023/04/01 00:52:38;;;;;;;44.50;16.52;;;;;;;8.69;100.00;99124.06;10401920;28;20117;-77
2023/04/01 00:57:38;;;;;;;49.30;17.85;;;;;;;8.70;100.00;99129.22;10397281;28;20030;-77
2023/04/01 01:02:38;;;;;;;43.10;17.02;;;;;;;8.71;100.00;99130.03;10364424;28;20070;-76
2023/04/01 01:08:04;;;;;;;38.15;14.00;;;;;;;8.70;100.00;99134.63;10379616;28;20481;-76
2023/04/01 01:13:27;;;;;;;31.85;14.13;;;;;;;8.69;100.00;99132.97;10394829;28;20030;-76
2023/04/01 01:18:51;;;;;;;34.60;11.75;;;;;;;8.71;100.00;99138.13;10395547;28;20171;-78
2023/04/01 01:24:17;;;;;;;35.50;11.90;;;;;;;8.65;100.00;99144.44;10379208;28;20038;-76
2023/04/01 01:29:41;;;;;;;34.65;12.80;;;;;;;8.67;100.00;99148.56;10394955;28;20065;-76
2023/04/01 01:35:19;;;;;;;33.22;11.63;;;;;;;8.64;100.00;99153.59;10379701;28;20045;-76
2023/04/01 01:40:21;;;;;;;26.67;10.10;;;;;;;8.62;100.00;99153.84;10381542;28;20029;-76
2023/04/01 01:45:21;;;;;;;23.60;11.35;;;;;;;8.64;100.00;99150.91;10380169;28;20034;-77
2023/04/01 01:50:22;;;;;;;28.35;13.35;;;;;;;8.64;100.00;99157.13;10361701;28;20034;-75
2023/04/01 01:55:36;;;;;;;20.88;12.15;;;;;;;8.67;100.00;99174.72;10361376;28;20026;-78
2023/04/01 02:00:37;;;;;;;28.10;11.98;;;;;;;8.71;100.00;99175.91;10379978;28;20033;-77
2023/04/01 02:05:37;;;;;;;32.13;12.68;;;;;;;8.72;100.00;99185.69;10377392;28;20442;-75
2023/04/01 02:10:40;;;;;;;21.00;10.38;;;;;;;8.70;100.00;99193.97;10377087;28;20113;-75
2023/04/01 02:15:43;;;;;;;20.42;9.98;;;;;;;8.71;100.00;99203.75;10377008;28;20068;-75
2023/04/01 02:20:43;;;;;;;12.70;8.02;;;;;;;8.74;100.00;99214.09;10393577;28;20038;-75
2023/04/01 02:25:43;;;;;;;17.42;7.57;;;;;;;8.77;100.00;99216.31;10392406;28;20105;-76
2023/04/01 02:30:44;;;;;;;16.00;8.10;;;;;;;8.79;100.00;99222.31;10375588;28;20073;-75
2023/04/01 02:35:44;;;;;;;15.07;9.13;;;;;;;8.81;100.00;99220.22;10377094;28;20049;-76
2023/04/01 02:40:48;;;;;;;10.00;8.20;;;;;;;8.81;100.00;99230.19;10360630;28;20430;-77
2023/04/01 02:45:48;;;;;;;13.70;9.80;;;;;;;8.84;100.00;99235.97;10376743;28;20481;-76
2023/04/01 02:50:49;;;;;;;14.55;10.80;;;;;;;8.88;100.00;99239.03;10377268;28;20038;-76
2023/04/01 02:55:51;;;;;;;21.67;13.82;;;;;;;8.89;100.00;99248.75;10374916;28;20125;-77
2023/04/01 03:00:51;;;;;;;19.73;15.15;;;;;;;8.90;100.00;99254.97;10375390;28;20429;-77
2023/04/01 03:05:55;;;;;;;29.77;14.98;;;;;;;8.96;100.00;99257.59;10393090;28;20037;-76
2023/04/01 03:10:55;;;;;;;24.05;17.45;;;;;;;9.00;100.00;99272.31;10376069;28;20063;-77
2023/04/01 03:15:56;;;;;;;39.15;18.95;;;;;;;9.01;100.00;99278.53;10375546;28;20056;-76
2023/04/01 03:20:56;;;;;;;47.58;18.48;;;;;;;9.02;100.00;99299.88;10390377;28;20077;-76
2023/04/01 03:25:57;;;;;;;31.88;17.05;;;;;;;9.03;100.00;99306.09;10375348;28;20109;-78
2023/04/01 03:30:57;;;;;;;25.25;15.05;;;;;;;9.02;100.00;99308.00;10389663;28;20065;-77
2023/04/01 03:35:57;;;;;;;24.98;14.35;;;;;;;9.02;100.00;99315.28;10389848;28;20443;-76
2023/04/01 03:40:58;;;;;;;23.50;13.27;;;;;;;8.99;100.00;99316.53;10373251;28;20539;-76
2023/04/01 03:45:58;;;;;;;29.13;14.68;;;;;;;9.00;100.00;99333.59;10373450;28;20117;-76
2023/04/01 03:50:59;;;;;;;45.00;18.17;;;;;;;9.01;100.00;99344.16;10389987;28;20474;-77
2023/04/01 03:56:03;;;;;;;18.63;11.60;;;;;;;8.99;100.00;99351.63;10389887;28;20088;-76
2023/04/01 04:01:13;;;;;;;21.77;12.90;;;;;;;8.99;100.00;99357.03;10373174;28;20034;-76
2023/04/01 04:06:14;;;;;;;21.40;13.35;;;;;;;9.00;100.00;99358.72;10376223;28;20084;-76
2023/04/01 04:11:15;;;;;;;26.35;15.13;;;;;;;8.99;100.00;99375.94;10373752;28;20088;-76
2023/04/01 04:16:16;;;;;;;24.45;14.50;;;;;;;9.03;100.00;99379.00;10374133;28;20034;-76
2023/04/01 04:21:16;;;;;;;28.13;15.20;;;;;;;9.05;100.00;99398.53;10389215;28;20052;-78
2023/04/01 04:26:17;;;;;;;30.52;14.38;;;;;;;9.04;100.00;99395.00;10374358;28;20036;-77
2023/04/01 04:31:21;;;;;;;24.52;14.38;;;;;;;9.06;100.00;99411.81;10372754;28;20060;-76
2023/04/01 04:36:22;;;;;;;33.58;15.05;;;;;;;9.07;100.00;99409.94;10388311;28;20049;-79
2023/04/01 04:41:22;;;;;;;23.70;14.82;;;;;;;9.03;100.00;99425.78;10374141;28;20038;-78
2023/04/01 04:46:23;;;;;;;18.00;12.63;;;;;;;9.01;100.00;99430.56;10372214;28;20034;-76
2023/04/01 04:51:23;;;;;;;19.77;13.20;;;;;;;8.98;100.00;99432.88;10373182;28;20481;-76
2023/04/01 04:56:25;;;;;;;23.40;14.27;;;;;;;8.94;100.00;99446.00;10389026;28;20061;-78
2023/04/01 05:01:26;;;;;;;27.85;14.35;;;;;;;8.93;100.00;99462.41;10355140;28;20041;-76
2023/04/01 05:06:29;;;;;;;31.52;17.25;;;;;;;8.91;100.00;99472.63;10372986;28;20037;-77
2023/04/01 05:11:29;;;;;;;25.35;17.27;;;;;;;8.84;100.00;99478.09;10372872;28;20481;-76
2023/04/01 05:16:31;;;;;;;22.75;14.30;;;;;;;8.82;100.00;99489.09;10372624;28;20041;-77
2023/04/01 05:21:31;;;;;;;22.73;16.08;;;;;;;8.84;100.00;99483.47;10372324;28;20070;-77
2023/04/01 05:26:32;;;;;;;17.42;14.50;;;;;;;8.88;100.00;99495.47;10379508;28;20038;-76
2023/04/01 05:31:32;;;;;;;19.25;11.95;;;;;;;8.86;100.00;99494.84;10394778;28;20058;-78
2023/04/01 05:36:33;;;;;;;33.50;17.02;;;;;;;8.86;100.00;99508.34;10379673;28;20073;-76
2023/04/01 05:41:37;;;;;;;29.55;15.30;;;;;;;8.88;100.00;99516.25;10378158;28;20029;-76
2023/04/01 05:46:37;;;;;;;14.73;10.80;;;;;;;8.83;100.00;99531.22;10379171;28;20060;-77
2023/04/01 05:51:38;;;;;;;27.30;14.93;;;;;;;8.81;100.00;99536.03;10378424;28;20022;-77
2023/04/01 05:56:38;;;;;;;22.55;14.63;;;;;;;8.82;100.00;99547.66;10377233;28;20076;-76
2023/04/01 06:01:39;;;;;;;28.05;15.52;;;;;;;8.80;100.00;99557.81;10394050;28;20038;-77
2023/04/01 06:06:39;;;;;;;23.52;14.85;;;;;;;8.75;100.00;99568.47;10378867;28;20033;-76
2023/04/01 06:12:01;;;;;;;27.98;16.77;;;;;;;8.73;100.00;99592.97;10377106;28;20118;-77
2023/04/01 06:17:25;;;;;;;28.63;17.35;;;;;;;8.74;100.00;99591.94;10377343;28;20096;-77
2023/04/01 06:22:28;;;;;;;26.63;14.63;;;;;;;8.73;100.00;99601.06;10378871;28;20052;-76
2023/04/01 06:27:41;;;;;;;26.20;14.80;;;;;;;8.73;100.00;99617.25;10392576;28;20050;-78
2023/04/01 06:33:04;;;;;;;27.40;17.38;;;;;;;8.78;100.00;99620.13;10377490;28;20057;-76
2023/04/01 06:38:37;;;;;;;31.38;16.02;;;;;;;8.83;100.00;99612.19;10393077;28;20041;-77
2023/04/01 06:43:44;;;;;;;20.77;13.75;;;;;;;8.88;100.00;99626.94;10375251;28;20128;-76
2023/04/01 06:48:57;;;;;;;22.88;12.68;;;;;;;8.97;100.00;99623.75;10375446;28;20484;-76
2023/04/01 06:54:00;;;;;;;17.95;13.35;;;;;;;9.01;100.00;99633.06;10377445;28;20128;-76
2023/04/01 06:59:14;;;;;;;21.23;10.63;;;;;;;9.21;100.00;99634.78;10376164;28;20500;-76
2023/04/01 07:04:20;;;;;;;13.27;8.38;;;;;;;9.21;100.00;99648.28;10376168;28;20437;-76
2023/04/01 07:09:24;;;;;;;;;;;;;;;9.15;100.00;99649.16;10392360;28;20421;-77
2023/04/01 07:14:32;;;;;;;7.88;7.18;;;;;;;9.26;100.00;99661.97;10373983;28;20325;-75
2023/04/01 07:19:42;;;;;;;5.40;4.88;;;;;;;9.24;100.00;99666.75;10358182;28;20355;-76
2023/04/01 07:24:44;;;;;;;5.28;4.22;;;;;;;9.28;100.00;99673.38;10375680;28;20435;-77
2023/04/01 07:29:44;;;;;;;8.25;6.20;;;;;;;9.27;100.00;99677.13;10374345;28;20537;-76
2023/04/01 07:34:48;;;;;;;8.63;6.55;;;;;;;9.29;100.00;99692.09;10375800;28;20037;-77
2023/04/01 07:39:54;;;;;;;14.20;8.07;;;;;;;9.25;100.00;99692.72;10318962;28;20046;-78
2023/04/01 07:45:07;;;;;;;10.98;8.40;;;;;;;9.26;100.00;99702.50;10389605;28;20036;-78
2023/04/01 07:50:26;;;;;;;14.60;8.75;;;;;;;9.22;100.00;99703.97;10373439;28;20083;-77
2023/04/01 07:55:32;;;;;;;20.50;9.90;;;;;;;9.17;100.00;99723.53;10373777;28;20493;-76
2023/04/01 08:00:38;;;;;;;13.57;10.32;;;;;;;9.26;100.00;99719.53;10374136;28;20030;-77
2023/04/01 08:05:45;;;;;;;17.77;12.77;;;;;;;9.35;100.00;99730.91;10374163;28;20089;-76
2023/04/01 08:11:05;;;;;;;27.33;11.90;;;;;;;9.40;100.00;99741.88;10374228;28;20038;-75
2023/04/01 08:16:33;;;;;;;15.82;11.27;;;;;;;9.49;100.00;99745.97;10373498;28;20054;-76
2023/04/01 08:21:42;;;;;;;19.40;12.60;;;;;;;9.51;100.00;99752.00;10374012;28;20116;-77
2023/04/01 08:26:45;;;;;;;16.83;11.55;;;;;;;9.44;100.00;99759.31;10372546;28;20385;-76
2023/04/01 08:32:00;;;;;;;26.00;12.98;;;;;;;9.44;100.00;99766.59;10387972;28;20054;-77
2023/04/01 08:37:05;;;;;;;30.35;12.73;;;;;;;9.41;100.00;99770.56;10388223;28;20030;-77
2023/04/01 08:42:21;;;;;;;22.42;11.63;;;;;;;9.48;100.00;99774.06;10388432;28;20030;-76
2023/04/01 08:47:42;;;;;;;17.73;10.07;;;;;;;9.63;100.00;99781.00;10372791;28;20438;-78
2023/04/01 08:52:49;;;;;;;14.57;10.18;;;;;;;9.64;100.00;99796.19;10389790;28;20034;-77
2023/04/01 08:58:08;;;;;;;25.65;13.10;;;;;;;9.75;100.00;99790.06;10390744;28;20041;-75
2023/04/01 09:03:18;;;;;;;15.82;11.80;;;;;;;9.71;100.00;99810.50;10380695;28;20030;-76
2023/04/01 09:08:33;;;;;;;13.27;10.48;;;;;;;9.69;100.00;99817.97;10380176;28;20425;-77
2023/04/01 09:13:42;;;;;;;21.25;11.02;;;;;;;9.72;100.00;99818.38;10395522;28;20037;-77
2023/04/01 09:19:06;;;;;;;20.52;12.68;;;;;;;9.82;100.00;99822.47;10380334;28;20080;-75
2023/04/01 09:24:20;;;;;;;33.13;14.73;;;;;;;9.85;100.00;99836.38;10362305;28;20040;-74
2023/04/01 09:29:48;;;;;;;26.20;13.57;;;;;;;9.71;100.00;99834.81;10379123;28;20050;-76
2023/04/01 09:34:58;;;;;;;33.67;14.32;;;;;;;9.67;100.00;99844.44;10380164;28;20117;-76
2023/04/01 09:40:37;;;;;;;26.13;14.68;;;;;;;9.73;100.00;99844.38;10380038;28;20092;-77
2023/04/01 09:45:46;;;;;;;33.78;13.48;;;;;;;9.71;100.00;99856.44;10378814;28;20090;-76
2023/04/01 09:51:05;;;;;;;13.00;8.98;;;;;;;9.79;100.00;99853.47;10379040;28;20033;-79
2023/04/01 09:56:28;;;;;;;14.90;8.88;;;;;;;9.87;100.00;99861.34;10393931;28;20037;-78
2023/04/01 10:01:37;;;;;;;16.95;8.93;;;;;;;9.95;100.00;99862.94;10378623;28;20112;-78
2023/04/01 10:07:07;;;;;;;15.10;9.43;;;;;;;9.97;100.00;99875.19;10392950;28;20053;-80
2023/04/01 10:12:29;;;;;;;10.52;8.70;;;;;;;9.96;100.00;99878.97;10394110;28;20069;-78
2023/04/01 10:17:50;;;;;;;16.15;8.40;;;;;;;10.17;100.00;99887.75;10378783;28;20034;-78
2023/04/01 10:23:11;;;;;;;12.80;8.20;;;;;;;10.23;100.00;99897.69;10378782;28;20088;-78
2023/04/01 10:28:30;;;;;;;10.95;8.02;;;;;;;10.19;100.00;99902.72;10375753;28;20072;-77
2023/04/01 10:33:36;;;;;;;13.25;8.98;;;;;;;10.13;100.00;99900.88;10377949;28;20406;-78
2023/04/01 10:38:55;;;;;;;17.10;9.32;;;;;;;10.13;100.00;99903.59;10377162;28;20040;-77
2023/04/01 10:44:17;;;;;;;15.15;9.20;;;;;;;10.09;100.00;99902.38;10376985;28;20061;-78
2023/04/01 10:49:21;;;;;;;23.45;11.40;;;;;;;10.26;100.00;99908.09;10375786;28;20467;-78
2023/04/01 10:54:41;;;;;;;17.23;9.77;;;;;;;10.42;100.00;99914.84;10375910;28;20115;-80
2023/04/01 11:00:07;;;;;;;16.42;10.43;;;;;;;10.52;100.00;99912.47;10391970;28;20141;-80
2023/04/01 11:05:25;;;;;;;12.57;8.82;;;;;;;10.43;100.00;99930.88;10374947;28;20430;-79
2023/04/01 11:11:03;;;;;;;15.55;10.05;;;;;;;10.27;100.00;99926.00;10376377;28;20062;-78
2023/04/01 11:16:23;;;;;;;18.25;10.65;;;;;;;10.12;100.00;99939.00;10376599;28;20436;-81
2023/04/01 11:21:49;;;;;;;21.88;12.10;;;;;;;10.21;100.00;99943.91;10374090;28;20420;-78
2023/04/01 11:27:20;;;;;;;25.88;14.00;;;;;;;10.31;100.00;99953.47;10375157;28;20029;-81
2023/04/01 11:32:33;;;;;;;32.03;12.98;;;;;;;10.35;100.00;99955.50;10375634;28;20089;-79
2023/04/01 11:37:42;;;;;;;26.35;14.18;;;;;;;10.41;100.00;99961.94;10374922;28;20053;-78
2023/04/01 11:43:33;;;;;;;23.40;13.82;;;;;;;10.48;100.00;99958.09;10357380;28;20030;-78
2023/04/01 11:48:36;;;;;;;21.23;11.70;;;;;;;10.50;100.00;99967.88;10373288;28;20061;-79
2023/04/01 11:53:48;;;;;;;19.50;11.05;;;;;;;10.62;100.00;99971.53;10374950;28;20117;-78
2023/04/01 11:58:57;;;;;;;20.58;11.90;;;;;;;11.00;100.00;99974.13;10358437;28;20128;-75
2023/04/01 12:04:25;;;;;;;19.85;10.18;;;;;;;10.92;100.00;99987.97;10372662;28;20397;-82
2023/04/01 12:09:47;;;;;;;14.32;9.82;;;;;;;10.71;100.00;100000.00;10373491;28;20066;-80
2023/04/01 12:15:30;;;;;;;21.73;12.43;;;;;;;10.73;100.00;100003.31;10373880;28;20034;-79
2023/04/01 12:20:51;;;;;;;13.82;10.60;;;;;;;10.75;100.00;100006.63;10369783;28;20466;-81
2023/04/01 12:26:10;;;;;;;15.77;11.15;;;;;;;11.00;100.00;100011.22;10372251;28;20056;-78
2023/04/01 12:31:43;;;;;;;11.98;7.93;;;;;;;11.04;100.00;100026.81;10374248;28;20050;-81
2023/04/01 12:37:35;;;;;;;13.55;7.93;;;;;;;10.92;100.00;100025.88;10380553;28;20045;-79
2023/04/01 12:42:48;;;;;;;10.68;8.23;;;;;;;10.90;100.00;100034.22;10348105;28;20136;-81
2023/04/01 12:48:13;;;;;;;15.18;9.05;;;;;;;10.89;100.00;100032.56;10380845;28;20025;-79
2023/04/01 12:53:23;;;;;;;13.73;9.07;;;;;;;10.83;100.00;100044.28;10380122;28;20068;-80
2023/04/01 12:59:07;;;;;;;18.77;9.50;;;;;;;10.80;100.00;100058.25;10380363;28;20080;-80
2023/04/01 13:04:39;;;;;;;19.17;9.75;;;;;;;10.82;100.00;100056.16;10379408;28;20112;-79
2023/04/01 13:09:52;;;;;;;22.48;10.07;;;;;;;10.80;100.00;100071.78;10395547;28;20041;-82
2023/04/01 13:14:58;;;;;;;21.17;9.02;;;;;;;10.87;100.00;100077.16;10380165;28;20037;-81
2023/04/01 13:20:10;;;;;;;24.60;9.30;;;;;;;10.89;100.00;100080.50;10379455;28;20437;-79
2023/04/01 13:25:32;;;;;;;17.77;7.82;;;;;;;10.96;100.00;100080.44;10379800;28;20454;-80
2023/04/01 13:30:44;;;;;;;12.07;7.03;;;;;;;10.85;100.00;100087.41;10378515;28;20116;-78
2023/04/01 13:36:10;;;;;;;12.95;5.75;;;;;;;10.82;100.00;100096.78;10379980;28;20030;-81
2023/04/01 13:41:23;;;;;;;21.13;5.72;;;;;;;10.83;100.00;100100.31;10363367;28;20037;-78
2023/04/01 13:46:39;;;;;;;9.98;4.45;;;;;;;10.62;100.00;100113.16;10377701;28;20040;-80
2023/04/01 13:51:58;;;;;;;15.57;6.23;;;;;;;10.61;100.00;100116.91;10378710;28;20029;-77
2023/04/01 13:57:21;;;;;;;10.57;5.47;;;;;;;10.63;100.00;100120.25;10379250;28;20026;-79
2023/04/01 14:02:55;;;;;;;9.75;5.40;;;;;;;10.59;100.00;100120.88;10394203;28;20116;-80
2023/04/01 14:08:20;;;;;;;7.28;5.78;;;;;;;10.54;100.00;100132.38;10378721;28;20045;-78
2023/04/01 14:13:51;;;;;;;8.73;6.43;;;;;;;10.44;100.00;100134.72;10361161;28;20188;-80
2023/04/01 14:19:39;;;;;;;13.35;6.28;;;;;;;10.41;100.00;100138.66;10377938;28;20038;-80
2023/04/01 14:24:51;;;;;;;18.42;6.28;;;;;;;10.65;100.00;100150.63;10368031;28;20053;-80
2023/04/01 14:29:57;;;;;;;10.38;7.18;;;;;;;11.03;100.00;100151.66;10392732;28;20391;-79
2023/04/01 14:35:33;;;;;;;8.23;6.50;;;;;;;11.25;100.00;100165.69;10377089;28;20034;-79
2023/04/01 14:41:09;;;;;;;8.85;6.15;;;;;;;11.12;100.00;100172.84;10392019;28;20116;-80
2023/04/01 14:46:28;;;;;;;7.75;4.72;;;;;;;11.11;100.00;100182.03;10371224;28;20038;-80
2023/04/01 14:51:39;;;;;;;10.80;5.72;;;;;;;11.29;100.00;100181.25;10376585;28;20030;-80
2023/04/01 14:56:40;;;;;;;14.65;5.82;;;;;;;11.09;100.00;100196.84;10374302;28;20492;-80
2023/04/01 15:02:12;;;;;;;16.02;6.50;;;;;;;10.99;100.00;100194.59;10376531;28;20121;-80
2023/04/01 15:07:31;;;;;;;10.27;5.28;;;;;;;11.04;100.00;100202.94;10375339;28;20033;-80
2023/04/01 15:13:20;;;;;;;14.73;7.85;;;;;;;10.97;100.00;100206.72;10376143;28;20037;-79
2023/04/01 15:18:37;;;;;;;26.20;6.63;;;;;;;10.76;100.00;100216.81;10357133;28;20496;-79
2023/04/01 15:23:57;;;;;;;;;;;;;;;10.63;100.00;100222.31;10389717;28;20055;-79
2023/04/01 15:29:03;;;;;;;9.80;5.75;;;;;;;10.69;100.00;100238.53;10375915;28;20320;-79
2023/04/01 15:34:24;;;;;;;20.93;5.53;;;;;;;10.70;100.00;100244.75;10375962;28;20381;-79
2023/04/01 15:40:05;;;;;;;16.58;4.93;;;;;;;10.76;100.00;100249.31;10373809;28;20417;-80
2023/04/01 15:45:15;;;;;;;18.42;5.53;;;;;;;10.88;100.00;100253.03;10386996;28;20418;-81
2023/04/01 15:50:31;;;;;;;23.13;6.32;;;;;;;10.71;100.00;100271.63;10390998;28;20025;-80
2023/04/01 15:55:38;;;;;;;33.33;7.10;;;;;;;10.56;100.00;100278.31;10374170;28;20153;-79
2023/04/01 16:00:44;;;;;;;13.88;5.65;;;;;;;10.44;100.00;100287.13;10389490;28;20069;-80
2023/04/01 16:06:09;;;;;;;17.95;5.55;;;;;;;10.38;100.00;100293.38;10373981;28;20087;-80
2023/04/01 16:11:26;;;;;;;15.80;4.93;;;;;;;10.33;100.00;100298.56;10374655;28;20095;-80
2023/04/01 16:16:51;;;;;;;29.33;7.77;;;;;;;10.27;100.00;100314.81;10373772;28;20101;-79
2023/04/01 16:21:57;;;;;;;20.92;6.00;;;;;;;10.22;100.00;100323.56;10374229;28;20030;-80
2023/04/01 16:27:23;;;;;;;18.40;5.67;;;;;;;10.27;100.00;100326.47;10373446;28;20030;-79
2023/04/01 16:32:48;;;;;;;9.65;6.22;;;;;;;10.33;100.00;100344.59;10382284;28;20291;-81
2023/04/01 16:38:13;;;;;;;14.07;5.07;;;;;;;10.31;100.00;100348.56;10373125;28;20034;-80
2023/04/01 16:43:20;;;;;;;9.70;6.38;;;;;;;10.26;100.00;100362.72;10372356;28;20034;-81
2023/04/01 16:48:23;;;;;;;10.73;7.00;;;;;;;10.21;100.00;100366.03;10389174;28;20025;-81
2023/04/01 16:53:41;;;;;;;9.55;5.72;;;;;;;10.25;100.00;100382.66;10357031;28;20125;-80
2023/04/01 16:58:48;;;;;;;12.85;5.95;;;;;;;10.23;100.00;100395.56;10389151;28;20116;-82
2023/04/01 17:03:57;;;;;;;6.47;5.03;;;;;;;10.16;100.00;100403.69;10372999;28;20584;-80
2023/04/01 17:09:03;;;;;;;14.05;6.63;;;;;;;9.95;100.00;100411.97;10389325;28;20042;-81
2023/04/01 17:15:00;;;;;;;16.08;7.32;;;;;;;9.93;100.00;100430.28;10373805;28;20113;-81
2023/04/01 17:20:15;;;;;;;9.23;6.40;;;;;;;9.95;100.00;100434.44;10315997;28;20133;-80
2023/04/01 17:25:34;;;;;;;8.27;6.78;;;;;;;9.86;100.00;100451.91;10364858;28;20104;-81
2023/04/01 17:30:36;;;;;;;7.68;6.53;;;;;;;9.91;100.00;100464.81;10379121;28;20057;-81
2023/04/01 17:35:52;;;;;;;5.65;5.15;;;;;;;9.84;100.00;100481.03;10379877;28;20038;-82
2023/04/01 17:41:08;;;;;;;6.43;5.07;;;;;;;9.72;100.00;100488.03;10394479;28;20033;-81
2023/04/01 17:46:33;;;;;;;7.13;6.13;;;;;;;9.63;100.00;100510.88;10380316;28;20059;-82
2023/04/01 17:52:16;;;;;;;7.45;5.90;;;;;;;9.65;100.00;100527.75;10379742;28;20042;-82
2023/04/01 17:57:46;;;;;;;6.35;5.82;;;;;;;9.59;100.00;100540.19;10392165;28;20428;-82
2023/04/01 18:03:06;;;;;;;9.15;6.68;;;;;;;9.50;100.00;100544.09;10363814;28;20041;-81
2023/04/01 18:08:28;;;;;;;7.05;6.15;;;;;;;9.39;100.00;100559.00;10377506;28;20481;-82
2023/04/01 18:13:44;;;;;;;5.07;4.60;;;;;;;9.37;100.00;100569.16;10377497;28;20432;-82
2023/04/01 18:18:58;;;;;;;7.90;6.33;;;;;;;9.30;100.00;100581.78;10395504;28;20038;-81
2023/04/01 18:24:11;;;;;;;7.30;5.95;;;;;;;9.30;100.00;100596.13;10381781;28;20084;-82
2023/04/01 18:29:44;;;;;;;5.22;4.75;;;;;;;9.30;100.00;100603.41;10383145;28;20050;-81
2023/04/01 18:35:15;;;;;;;8.18;5.63;;;;;;;9.19;100.00;100614.75;10371978;28;20049;-81
2023/04/01 18:40:30;;;;;;;8.35;6.63;;;;;;;9.15;100.00;100629.69;10378159;28;20462;-80
2023/04/01 18:45:49;;;;;;;6.57;5.85;;;;;;;9.08;100.00;100649.34;10375522;28;20026;-81
2023/04/01 18:51:13;;;;;;;8.18;5.40;;;;;;;9.07;100.00;100654.97;10377997;28;20041;-83
2023/04/01 18:56:28;;;;;;;9.77;5.47;;;;;;;8.99;100.00;100679.41;10376717;28;20053;-80
2023/04/01 19:02:03;;;;;;;6.10;5.50;;;;;;;8.92;100.00;100692.84;10375314;28;20041;-80
2023/04/01 19:07:31;;;;;;;5.90;5.40;;;;;;;8.82;100.00;100701.25;10376728;28;20450;-81
2023/04/01 19:13:04;;;;;;;9.63;5.25;;;;;;;8.81;100.00;100709.56;10377574;28;20084;-81
2023/04/01 19:18:46;;;;;;;6.25;4.90;;;;;;;8.82;100.00;100722.00;10359508;28;20091;-81
2023/04/01 19:24:37;;;;;;;9.30;6.20;;;;;;;8.77;100.00;100737.94;10365034;28;20349;-81
2023/04/01 19:29:51;;;;;;;5.25;4.82;;;;;;;8.67;100.00;100754.44;10368743;28;20069;-81
2023/04/01 19:35:29;;;;;;;8.25;5.40;;;;;;;8.65;100.00;100755.66;10374825;28;20038;-81
2023/04/01 19:40:32;;;;;;;6.88;6.13;;;;;;;8.70;100.00;100769.41;10377402;28;20076;-81
2023/04/01 19:45:41;;;;;;;8.25;6.65;;;;;;;8.72;100.00;100775.47;10374670;28;20080;-80
2023/04/01 19:50:59;;;;;;;7.47;6.65;;;;;;;8.58;100.00;100786.13;10391772;28;20080;-81
2023/04/01 19:56:12;;;;;;;11.05;7.22;;;;;;;8.58;100.00;100796.91;10374939;28;20124;-80
2023/04/01 20:01:17;;;;;;;7.18;6.47;;;;;;;8.54;100.00;100800.16;10376112;28;20424;-80
2023/04/01 20:06:38;;;;;;;8.68;7.68;;;;;;;8.41;100.00;100816.16;10390009;28;20029;-79
2023/04/01 20:12:20;;;;;;;9.70;7.25;;;;;;;8.40;100.00;100825.28;10374067;28;20045;-80
2023/04/01 20:17:41;;;;;;;13.32;7.55;;;;;;;8.34;100.00;100841.16;10360819;28;20041;-83
2023/04/01 20:22:44;;;;;;;10.93;8.07;;;;;;;8.32;100.00;100855.84;10390142;28;20466;-80
2023/04/01 20:27:55;;;;;;;9.75;8.70;;;;;;;8.24;100.00;100869.44;10374957;28;20034;-79
2023/04/01 20:33:21;;;;;;;10.50;7.35;;;;;;;8.20;100.00;100868.09;10373432;28;20065;-80
2023/04/01 20:38:33;;;;;;;9.73;8.80;;;;;;;8.21;100.00;100886.81;10389372;28;20038;-79
2023/04/01 20:43:55;;;;;;;10.23;8.55;;;;;;;8.20;100.00;100908.56;10389611;28;20036;-79
2023/04/01 20:49:20;;;;;;;10.63;9.32;;;;;;;8.14;100.00;100920.94;10388667;28;20534;-79
2023/04/01 20:54:50;;;;;;;9.80;8.80;;;;;;;8.04;100.00;100931.97;10379016;28;20034;-80
2023/04/01 21:00:19;;;;;;;12.55;8.43;;;;;;;7.99;100.00;100930.81;10381297;28;20068;-79
2023/04/01 21:05:39;;;;;;;9.20;8.25;;;;;;;7.99;100.00;100936.22;10381223;28;20061;-78
2023/04/01 21:11:15;;;;;;;9.15;8.25;;;;;;;7.89;100.00;100947.25;10381218;28;20143;-80
2023/04/01 21:16:37;;;;;;;8.65;7.75;;;;;;;7.85;100.00;100965.63;10396760;28;20041;-77
2023/04/01 21:22:05;;;;;;;9.75;8.68;;;;;;;7.86;100.00;100990.72;10380193;28;20092;-77
2023/04/01 21:27:15;;;;;;;11.88;10.65;;;;;;;7.89;100.00;101002.00;10379109;28;20532;-77
2023/04/01 21:32:24;;;;;;;21.92;10.70;;;;;;;7.80;100.00;101010.31;10395301;28;20050;-76
2023/04/01 21:37:34;;;;;;;9.82;8.82;;;;;;;7.80;100.00;101021.94;10394629;28;20026;-77
2023/04/01 21:42:56;;;;;;;10.02;9.13;;;;;;;7.70;100.00;101034.78;10378728;28;20026;-76
2023/04/01 21:48:26;;;;;;;12.02;8.50;;;;;;;7.67;100.00;101035.13;10380443;28;20034;-76
2023/04/01 21:54:04;;;;;;;12.73;9.68;;;;;;;7.78;100.00;101050.06;10378800;28;20030;-78
2023/04/01 21:59:30;;;;;;;23.75;13.05;;;;;;;7.65;100.00;101062.25;10391623;28;20042;-76
2023/04/01 22:04:45;;;;;;;12.70;10.63;;;;;;;7.59;100.00;101076.41;10393778;28;20481;-77
2023/04/01 22:10:04;;;;;;;12.55;7.53;;;;;;;7.51;100.00;101067.53;10394001;28;20271;-78
2023/04/01 22:15:04;;;;;;;6.47;5.78;;;;;;;7.29;100.00;101093.34;10378764;28;20481;-77
2023/04/01 22:20:19;;;;;;;11.10;7.82;;;;;;;7.19;100.00;101088.16;10377422;28;20030;-76
2023/04/01 22:25:22;;;;;;;7.82;7.07;;;;;;;7.22;100.00;101101.28;10378287;28;20065;-75
2023/04/01 22:30:24;;;;;;;11.38;9.32;;;;;;;7.21;100.00;101113.91;10394125;28;20057;-74
2023/04/01 22:35:58;;;;;;;9.38;8.07;;;;;;;7.23;100.00;101111.88;10376725;28;20025;-75
2023/04/01 22:41:34;;;;;;;14.32;9.07;;;;;;;7.31;100.00;101132.59;10377294;28;20034;-78
2023/04/01 22:46:50;;;;;;;10.40;8.05;;;;;;;7.27;100.00;101141.16;10384009;28;20050;-75
2023/04/01 22:52:27;;;;;;;10.00;7.72;;;;;;;7.17;100.00;101146.72;10390430;28;20030;-75
2023/04/01 22:57:41;;;;;;;11.82;8.95;;;;;;;7.15;100.00;101160.38;10377243;28;20482;-75
2023/04/01 23:02:45;;;;;;;12.00;10.13;;;;;;;7.11;100.00;101171.63;10376566;28;20095;-74
2023/04/01 23:08:22;;;;;;;17.33;9.07;;;;;;;7.07;100.00;101181.06;10391870;28;20351;-75
2023/04/01 23:13:27;;;;;;;13.95;9.60;;;;;;;7.09;100.00;101182.59;10391688;28;20133;-75
2023/04/01 23:18:50;;;;;;;14.55;10.75;;;;;;;7.06;100.00;101201.78;10390311;28;20105;-76
2023/04/01 23:24:11;;;;;;;12.02;10.73;;;;;;;7.08;100.00;101205.13;10375694;28;20029;-76
2023/04/01 23:29:16;;;;;;;13.68;8.90;;;;;;;7.04;100.00;101213.72;10375077;28;20061;-76
2023/04/01 23:34:30;;;;;;;19.40;11.15;;;;;;;7.03;100.00;101223.66;10374459;28;20076;-75
2023/04/01 23:39:39;;;;;;;11.57;9.38;;;;;;;6.96;100.00;101231.56;10374480;28;20472;-75
2023/04/01 23:44:39;;;;;;;14.75;11.20;;;;;;;6.92;100.00;101234.72;10376448;28;20022;-75
2023/04/01 23:49:42;;;;;;;14.60;9.55;;;;;;;6.98;100.00;101234.06;10374844;28;20026;-77